Time;durP1;ratioP1;P1;durP2;ratioP2;P2;SDS_P1;SDS_P2;PMS_P1;PMS_P2;Temp;Humidity;BMP_temperature;BMP_pressure;BME280_temperature;BME280_humidity;BME280_pressure;Samples;Min_cycle;Max_cycle;Signal;HPM_P1;HPM_P2
2023/03/27 00:01:18;;;;;;;10.20;1.02;;;10.80;99.90;;;;;;5110979;28;20272;-84
2023/03/27 00:03:50;;;;;;;0.95;0.95;;;10.80;99.90;;;;;;5111539;28;20219;-83
2023/03/27 00:06:23;;;;;;;0.90;0.90;;;10.80;99.90;;;;;;5111287;28;20235;-83
2023/03/27 00:08:52;;;;;;;1.23;1.13;;;10.80;99.90;;;;;;5110363;28;20227;-83
2023/03/27 00:11:23;;;;;;;0.80;0.80;;;10.70;99.90;;;;;;5110843;28;20219;-83
2023/03/27 00:13:53;;;;;;;1.25;1.15;;;10.70;99.90;;;;;;5111135;28;20233;-84
2023/03/27 00:16:23;;;;;;;1.13;1.02;;;10.70;99.90;;;;;;5111544;28;20223;-84
2023/03/27 00:18:53;;;;;;;1.33;1.23;;;10.70;99.90;;;;;;5112598;28;20261;-84
2023/03/27 00:21:24;;;;;;;1.00;1.00;;;10.60;99.90;;;;;;5112499;28;20232;-84
2023/03/27 00:23:53;;;;;;;0.93;0.93;;;10.60;99.90;;;;;;5113457;28;20199;-84
2023/03/27 00:26:22;;;;;;;1.13;1.08;;;10.50;99.90;;;;;;5113196;28;20203;-84
2023/03/27 00:28:51;;;;;;;0.95;0.95;;;10.50;99.90;;;;;;5112840;28;20249;-84
2023/03/27 00:31:20;;;;;;;1.05;1.05;;;10.50;99.90;;;;;;5112537;28;20224;-84
2023/03/27 00:33:48;;;;;;;1.20;1.10;;;10.50;99.90;;;;;;5112721;28;20212;-84
2023/03/27 00:36:17;;;;;;;0.90;0.90;;;10.50;99.90;;;;;;5112376;28;20289;-84
2023/03/27 00:38:47;;;;;;;1.00;1.00;;;10.40;99.90;;;;;;5112547;28;20222;-84
2023/03/27 00:41:15;;;;;;;1.42;1.30;;;10.40;99.90;;;;;;5113389;28;20255;-84
2023/03/27 00:43:44;;;;;;;1.33;1.23;;;10.40;99.90;;;;;;5112807;28;20279;-84
2023/03/27 00:46:37;;;;;;;1.50;1.40;;;10.40;99.90;;;;;;5112506;28;20208;-85
2023/03/27 00:49:09;;;;;;;1.40;1.30;;;10.30;99.90;;;;;;5112735;28;20208;-84
2023/03/27 00:51:40;;;;;;;1.50;1.40;;;10.30;99.90;;;;;;5112846;28;20231;-84
2023/03/27 00:54:10;;;;;;;1.42;1.30;;;10.20;99.90;;;;;;5113159;28;20184;-84
2023/03/27 00:56:39;;;;;;;1.63;1.52;;;10.20;99.90;;;;;;5112416;28;20227;-84
2023/03/27 00:59:12;;;;;;;1.52;1.42;;;10.10;99.90;;;;;;5112336;28;20401;-83
2023/03/27 01:01:41;;;;;;;1.30;1.20;;;10.10;99.90;;;;;;5112527;28;20315;-83
2023/03/27 01:04:10;;;;;;;2.65;1.23;;;10.10;99.90;;;;;;5112648;28;20199;-84
2023/03/27 01:06:40;;;;;;;1.48;1.38;;;10.00;99.90;;;;;;5112312;28;20245;-84
2023/03/27 01:09:10;;;;;;;1.98;1.88;;;10.00;99.90;;;;;;5112554;28;20208;-84
2023/03/27 01:11:56;;;;;;;1.33;1.23;;;10.00;99.90;;;;;;5112228;28;20339;-84
2023/03/27 01:14:34;;;;;;;4.82;1.27;;;10.00;99.90;;;;;;5112845;28;20257;-84
2023/03/27 01:17:20;;;;;;;1.42;1.25;;;9.90;99.90;;;;;;5111435;28;20219;-83
2023/03/27 01:20:22;;;;;;;1.35;1.25;;;9.80;99.90;;;;;;5112312;28;20214;-84
2023/03/27 01:23:26;;;;;;;2.38;0.98;;;9.80;99.90;;;;;;5079476;28;20264;-84
2023/03/27 01:26:56;;;;;;;1.00;1.00;;;9.80;99.90;;;;;;5112315;28;20290;-84
2023/03/27 01:29:36;;;;;;;1.10;1.00;;;9.70;99.90;;;;;;5112662;28;20204;-84
2023/03/27 01:32:48;;;;;;;1.23;1.13;;;9.60;99.90;;;;;;5112516;28;20251;-84
2023/03/27 01:35:40;;;;;;;0.80;0.80;;;9.50;99.90;;;;;;5115906;28;20206;-83
2023/03/27 01:38:44;;;;;;;1.40;1.30;;;9.40;99.90;;;;;;5105546;28;20205;-84
2023/03/27 01:41:20;;;;;;;0.95;0.95;;;9.40;99.90;;;;;;5082631;28;20223;-84
2023/03/27 01:43:56;;;;;;;0.80;0.80;;;9.30;99.90;;;;;;5115943;28;20229;-84
2023/03/27 01:46:34;;;;;;;0.93;0.93;;;9.20;99.90;;;;;;5115581;28;20211;-83
2023/03/27 01:49:08;;;;;;;0.65;0.65;;;9.20;99.90;;;;;;5115059;28;20204;-84
2023/03/27 01:51:40;;;;;;;0.80;0.80;;;9.20;99.90;;;;;;5115204;28;20298;-84
2023/03/27 01:54:16;;;;;;;0.75;0.75;;;9.20;99.90;;;;;;5115691;28;20272;-85
2023/03/27 01:56:52;;;;;;;0.73;0.73;;;9.10;99.90;;;;;;5115250;28;20219;-84
2023/03/27 01:59:25;;;;;;;0.70;0.70;;;9.10;99.90;;;;;;5116074;28;20217;-84
2023/03/27 02:01:59;;;;;;;1.52;1.05;;;9.10;99.90;;;;;;5115969;28;20232;-83
2023/03/27 02:04:36;;;;;;;0.85;0.85;;;9.00;99.90;;;;;;5115323;28;20199;-84
2023/03/27 02:07:11;;;;;;;0.63;0.63;;;9.00;99.90;;;;;;5115319;28;20226;-84
2023/03/27 02:09:46;;;;;;;0.80;0.80;;;9.00;99.90;;;;;;5115712;28;20234;-84
2023/03/27 02:12:19;;;;;;;0.77;0.77;;;9.00;99.90;;;;;;5115237;28;20224;-84
2023/03/27 02:14:53;;;;;;;0.95;0.88;;;9.00;99.90;;;;;;5115545;28;20212;-84
2023/03/27 02:17:24;;;;;;;1.17;1.17;;;8.90;99.90;;;;;;5114265;28;20295;-84
2023/03/27 02:19:58;;;;;;;0.93;0.93;;;8.90;99.90;;;;;;5115258;28;20214;-84
2023/03/27 02:22:27;;;;;;;1.30;1.30;;;8.90;99.90;;;;;;5115453;28;20234;-83
2023/03/27 02:25:24;;;;;;;1.42;1.33;;;8.90;99.90;;;;;;5115348;28;20195;-83
2023/03/27 02:28:01;;;;;;;1.48;1.38;;;8.90;99.90;;;;;;5114478;28;20223;-84
2023/03/27 02:30:35;;;;;;;1.35;1.25;;;8.80;99.90;;;;;;5114839;28;20251;-84
2023/03/27 02:33:13;;;;;;;1.13;1.13;;;8.70;99.90;;;;;;5115294;28;20203;-84
2023/03/27 02:35:50;;;;;;;1.77;1.67;;;8.80;99.90;;;;;;5114887;28;20215;-83
2023/03/27 02:38:24;;;;;;;3.03;1.67;;;8.70;99.90;;;;;;5114479;28;20214;-84
2023/03/27 02:41:02;;;;;;;1.30;1.30;;;8.70;99.90;;;;;;5114860;28;20230;-83
2023/03/27 02:43:37;;;;;;;1.30;1.27;;;8.60;99.90;;;;;;5114372;28;20195;-84
2023/03/27 02:46:13;;;;;;;1.40;1.30;;;8.70;99.90;;;;;;5114809;28;20350;-84
2023/03/27 02:48:46;;;;;;;1.20;1.20;;;8.70;99.90;;;;;;5114087;28;20207;-84
2023/03/27 02:51:19;;;;;;;1.20;1.20;;;8.60;99.90;;;;;;5114972;28;20227;-84
2023/03/27 02:53:53;;;;;;;1.20;1.20;;;8.60;99.90;;;;;;5114418;28;20204;-83
2023/03/27 02:56:24;;;;;;;1.50;1.40;;;8.60;99.90;;;;;;5114610;28;20216;-84
2023/03/27 02:58:58;;;;;;;1.63;1.48;;;8.60;99.90;;;;;;5114186;28;20215;-84
2023/03/27 03:01:29;;;;;;;1.45;1.35;;;8.60;99.90;;;;;;5114512;28;20258;-84
2023/03/27 03:04:00;;;;;;;0.98;0.98;;;8.50;99.90;;;;;;5114265;28;20211;-84
2023/03/27 03:06:29;;;;;;;1.10;1.10;;;8.50;99.90;;;;;;5113906;28;20196;-84
2023/03/27 03:09:01;;;;;;;1.20;1.20;;;8.40;99.90;;;;;;5113572;28;20284;-84
2023/03/27 03:11:30;;;;;;;1.60;1.50;;;8.40;99.90;;;;;;5113830;28;20223;-84
2023/03/27 03:14:01;;;;;;;1.00;1.00;;;8.40;99.90;;;;;;5113875;28;20235;-84
2023/03/27 03:16:30;;;;;;;0.70;0.70;;;8.40;99.90;;;;;;5113984;28;20229;-84
2023/03/27 03:18:58;;;;;;;0.80;0.80;;;8.40;99.90;;;;;;5113228;28;20233;-84
2023/03/27 03:21:26;;;;;;;0.85;0.85;;;8.40;99.90;;;;;;5113823;28;20220;-84
2023/03/27 03:23:55;;;;;;;0.43;0.43;;;8.40;99.90;;;;;;5114190;28;20204;-84
2023/03/27 03:26:26;;;;;;;0.77;0.77;;;8.30;99.90;;;;;;5113941;28;20200;-84
2023/03/27 03:28:56;;;;;;;1.40;1.30;;;8.20;99.90;;;;;;5113599;28;20216;-84
2023/03/27 03:31:42;;;;;;;0.70;0.70;;;8.20;99.90;;;;;;5113674;28;20283;-84
2023/03/27 03:34:13;;;;;;;0.70;0.70;;;8.10;99.90;;;;;;5113930;28;20227;-84
2023/03/27 03:36:42;;;;;;;0.70;0.70;;;8.10;99.90;;;;;;5113444;28;20229;-84
2023/03/27 03:39:11;;;;;;;0.82;0.82;;;8.00;99.90;;;;;;5113193;28;20234;-84
2023/03/27 03:41:40;;;;;;;1.13;0.88;;;8.00;99.90;;;;;;5113530;28;20256;-84
2023/03/27 03:44:09;;;;;;;0.82;0.82;;;8.00;99.90;;;;;;5113519;28;20203;-84
2023/03/27 03:46:39;;;;;;;1.02;1.02;;;7.90;99.90;;;;;;5113493;28;20203;-85
2023/03/27 03:49:08;;;;;;;0.73;0.73;;;7.90;99.90;;;;;;5113331;28;20324;-85
2023/03/27 03:51:37;;;;;;;1.02;1.02;;;7.90;99.90;;;;;;5113411;28;20253;-85
2023/03/27 03:54:06;;;;;;;1.20;1.13;;;7.80;99.90;;;;;;5113451;28;20211;-84
2023/03/27 03:56:36;;;;;;;0.55;0.55;;;7.90;99.90;;;;;;5113006;28;20208;-84
2023/03/27 03:59:04;;;;;;;1.17;1.08;;;7.90;99.90;;;;;;5113107;28;20210;-84
2023/03/27 04:01:33;;;;;;;0.98;0.98;;;7.80;99.90;;;;;;5113048;28;20220;-84
2023/03/27 04:04:03;;;;;;;1.15;1.13;;;7.90;99.90;;;;;;5113393;28;20204;-84
2023/03/27 04:06:36;;;;;;;1.08;1.08;;;7.80;99.90;;;;;;5112884;28;20249;-84
2023/03/27 04:09:05;;;;;;;0.85;0.85;;;7.80;99.90;;;;;;5112866;28;20237;-84
2023/03/27 04:11:34;;;;;;;0.90;0.90;;;7.80;99.90;;;;;;5113010;28;20223;-84
2023/03/27 04:14:02;;;;;;;1.35;1.30;;;7.80;99.90;;;;;;5112973;28;20207;-84
2023/03/27 04:16:31;;;;;;;3.53;1.27;;;7.80;99.90;;;;;;5113058;28;20203;-84
2023/03/27 04:18:59;;;;;;;4.78;1.30;;;7.80;99.90;;;;;;5112139;28;20288;-84
2023/03/27 04:21:32;;;;;;;0.88;0.88;;;7.70;99.90;;;;;;5112820;28;20234;-84
2023/03/27 04:24:01;;;;;;;0.85;0.85;;;7.70;99.90;;;;;;5113164;28;20233;-84
2023/03/27 04:26:30;;;;;;;1.05;1.05;;;7.70;99.90;;;;;;5113115;28;20273;-84
2023/03/27 04:28:58;;;;;;;0.95;0.95;;;7.70;99.90;;;;;;5112409;28;20222;-84
2023/03/27 04:31:29;;;;;;;0.93;0.93;;;7.60;99.90;;;;;;5112846;28;20298;-84
2023/03/27 04:33:58;;;;;;;0.93;0.93;;;7.60;99.90;;;;;;5113039;28;20227;-84
2023/03/27 04:36:27;;;;;;;1.25;1.20;;;7.60;99.90;;;;;;5112762;28;20203;-84
2023/03/27 04:39:01;;;;;;;1.10;1.02;;;7.60;99.90;;;;;;5112129;28;20219;-84
2023/03/27 04:41:29;;;;;;;0.88;0.88;;;7.60;99.90;;;;;;5112776;28;20228;-84
2023/03/27 04:43:58;;;;;;;1.50;1.10;;;7.60;99.90;;;;;;5112783;28;20226;-84
2023/03/27 04:46:26;;;;;;;1.15;1.10;;;7.60;99.90;;;;;;5112836;28;20207;-84
2023/03/27 04:48:55;;;;;;;0.80;0.80;;;7.60;99.90;;;;;;5112788;28;20206;-82
2023/03/27 04:51:25;;;;;;;0.73;0.73;;;7.70;99.90;;;;;;5112449;28;20224;-82
2023/03/27 04:53:55;;;;;;;0.68;0.68;;;7.70;99.90;;;;;;5112904;28;20238;-84
2023/03/27 04:56:25;;;;;;;0.82;0.75;;;7.70;99.90;;;;;;5112705;28;20204;-84
2023/03/27 04:58:54;;;;;;;0.40;0.40;;;7.70;99.90;;;;;;5111937;28;20212;-84
2023/03/27 05:01:24;;;;;;;0.75;0.75;;;7.70;99.90;;;;;;5112563;28;20224;-84
2023/03/27 05:03:53;;;;;;;0.32;0.32;;;7.70;99.90;;;;;;5112555;28;20207;-84
2023/03/27 05:06:22;;;;;;;0.70;0.70;;;7.70;99.90;;;;;;5112439;28;20200;-84
2023/03/27 05:08:51;;;;;;;0.40;0.40;;;7.70;99.90;;;;;;5114348;28;20291;-84
2023/03/27 05:11:20;;;;;;;0.43;0.43;;;7.80;99.90;;;;;;5116434;28;20223;-84
2023/03/27 05:13:50;;;;;;;0.28;0.28;;;7.80;99.90;;;;;;5116050;28;20225;-84
2023/03/27 05:16:19;;;;;;;0.20;0.20;;;7.80;99.90;;;;;;5116368;28;20208;-84
2023/03/27 05:18:48;;;;;;;0.50;0.50;;;7.80;99.90;;;;;;5115175;28;20223;-84
2023/03/27 05:21:16;;;;;;;0.55;0.55;;;7.80;99.90;;;;;;5116138;28;20228;-85
2023/03/27 05:23:44;;;;;;;0.63;0.63;;;7.80;99.90;;;;;;5116089;28;20256;-85
2023/03/27 05:26:13;;;;;;;0.50;0.50;;;7.80;99.90;;;;;;5116409;28;20207;-84
2023/03/27 05:28:42;;;;;;;0.52;0.47;;;7.80;99.90;;;;;;5115583;28;20207;-82
2023/03/27 05:31:11;;;;;;;1.70;1.17;;;7.80;99.90;;;;;;5115620;28;20255;-82
2023/03/27 05:33:40;;;;;;;0.30;0.30;;;7.90;99.90;;;;;;5115859;28;20265;-82
2023/03/27 05:36:09;;;;;;;0.40;0.40;;;7.90;99.90;;;;;;5115425;28;20199;-82
2023/03/27 05:38:38;;;;;;;0.20;0.20;;;7.90;99.90;;;;;;5115073;28;20224;-82
2023/03/27 05:41:08;;;;;;;0.70;0.70;;;7.80;99.90;;;;;;5116031;28;20285;-82
2023/03/27 05:43:37;;;;;;;0.20;0.20;;;7.80;99.90;;;;;;5116132;28;20227;-82
2023/03/27 05:46:08;;;;;;;0.57;0.57;;;7.80;99.90;;;;;;5115795;28;20239;-82
2023/03/27 05:48:38;;;;;;;0.52;0.52;;;7.80;99.90;;;;;;5112918;28;20249;-81
2023/03/27 05:51:09;;;;;;;0.95;0.73;;;7.80;99.90;;;;;;5101747;28;20286;-81
2023/03/27 05:53:38;;;;;;;0.55;0.55;;;7.80;99.90;;;;;;5111166;28;20197;-81
2023/03/27 05:56:07;;;;;;;1.27;0.40;;;7.80;99.90;;;;;;5114211;28;20199;-81
2023/03/27 05:58:36;;;;;;;0.13;0.13;;;7.80;99.90;;;;;;5114710;28;20219;-81
2023/03/27 06:01:05;;;;;;;0.75;0.60;;;7.80;99.90;;;;;;5114934;28;20279;-81
2023/03/27 06:03:37;;;;;;;0.35;0.35;;;7.80;99.90;;;;;;5112068;28;20203;-80
2023/03/27 06:06:12;;;;;;;1.15;0.50;;;7.70;99.90;;;;;;5113253;28;20196;-80
2023/03/27 06:08:41;;;;;;;0.40;0.40;;;7.70;99.90;;;;;;5094528;28;20204;-81
2023/03/27 06:11:10;;;;;;;0.47;0.47;;;7.70;99.90;;;;;;5094563;28;20228;-81
2023/03/27 06:13:41;;;;;;;0.40;0.40;;;7.80;99.90;;;;;;5109075;28;20196;-81
2023/03/27 06:16:10;;;;;;;0.55;0.55;;;7.70;99.90;;;;;;5114808;28;20265;-81
2023/03/27 06:18:38;;;;;;;0.47;0.47;;;7.80;99.90;;;;;;5113598;28;20231;-81
2023/03/27 06:21:08;;;;;;;0.32;0.32;;;7.70;99.90;;;;;;5115305;28;20251;-81
2023/03/27 06:23:37;;;;;;;0.63;0.63;;;7.70;99.90;;;;;;5114667;28;20192;-81
2023/03/27 06:26:06;;;;;;;0.28;0.28;;;7.70;99.90;;;;;;5114858;28;20207;-80
2023/03/27 06:28:34;;;;;;;6.03;0.80;;;7.80;99.90;;;;;;5113644;28;20241;-81
2023/03/27 06:31:03;;;;;;;0.43;0.43;;;7.80;99.90;;;;;;5114168;28;20219;-81
2023/03/27 06:33:31;;;;;;;0.40;0.40;;;7.90;99.90;;;;;;5113995;28;20196;-80
2023/03/27 06:36:00;;;;;;;0.30;0.30;;;7.80;99.90;;;;;;5114622;28;20253;-80
2023/03/27 06:38:31;;;;;;;0.43;0.30;;;7.80;99.90;;;;;;5114039;28;20220;-80
2023/03/27 06:41:00;;;;;;;0.50;0.50;;;7.80;99.90;;;;;;5114433;28;20269;-81
2023/03/27 06:43:28;;;;;;;0.47;0.47;;;7.80;99.90;;;;;;5114482;28;20235;-81
2023/03/27 06:45:57;;;;;;;0.52;0.52;;;7.90;99.90;;;;;;5114118;28;20203;-81
2023/03/27 06:48:25;;;;;;;1.95;0.85;;;7.90;99.90;;;;;;5113863;28;20196;-81
2023/03/27 06:50:54;;;;;;;1.08;1.08;;;7.90;99.90;;;;;;5114107;28;20231;-81
2023/03/27 06:53:23;;;;;;;0.95;0.93;;;8.00;99.90;;;;;;5114332;28;20246;-81
2023/03/27 06:55:57;;;;;;;1.23;1.10;;;8.00;99.90;;;;;;5114147;28;20204;-81
2023/03/27 06:58:26;;;;;;;3.25;3.03;;;8.10;99.90;;;;;;5105714;28;20192;-81
2023/03/27 07:00:55;;;;;;;7.00;5.18;;;8.10;99.90;;;;;;5113833;28;20219;-81
2023/03/27 07:03:24;;;;;;;1.55;1.45;;;8.20;99.90;;;;;;5114182;28;20204;-81
2023/03/27 07:05:53;;;;;;;0.60;0.60;;;8.20;99.90;;;;;;5113954;28;20291;-81
2023/03/27 07:08:24;;;;;;;0.50;0.50;;;8.20;99.90;;;;;;5113241;28;20211;-81
2023/03/27 07:10:54;;;;;;;1.65;0.95;;;8.20;99.90;;;;;;5113828;28;20253;-81
2023/03/27 07:13:26;;;;;;;0.52;0.52;;;8.10;99.90;;;;;;5112738;28;20298;-81
2023/03/27 07:15:55;;;;;;;0.65;0.65;;;8.10;99.90;;;;;;5114064;28;20290;-82
2023/03/27 07:18:23;;;;;;;0.73;0.40;;;8.00;99.90;;;;;;5113186;28;20214;-81
2023/03/27 07:20:51;;;;;;;0.47;0.47;;;8.00;99.90;;;;;;5113229;28;20228;-81
2023/03/27 07:23:20;;;;;;;0.40;0.40;;;8.00;99.90;;;;;;5113749;28;20204;-81
2023/03/27 07:25:48;;;;;;;0.60;0.60;;;8.00;99.90;;;;;;5112906;28;20340;-81
2023/03/27 07:28:21;;;;;;;0.40;0.40;;;7.90;99.90;;;;;;5113697;28;20291;-81
2023/03/27 07:30:51;;;;;;;0.35;0.35;;;7.90;99.90;;;;;;5112696;28;20223;-81
2023/03/27 07:33:19;;;;;;;0.50;0.50;;;7.90;99.90;;;;;;5113911;28;20207;-81
2023/03/27 07:35:48;;;;;;;0.85;0.50;;;7.80;99.90;;;;;;5113278;28;20215;-81
2023/03/27 07:38:17;;;;;;;0.40;0.40;;;7.80;99.90;;;;;;5112940;28;20208;-81
2023/03/27 07:40:46;;;;;;;1.40;0.60;;;7.70;99.90;;;;;;5112461;28;20287;-81
2023/03/27 07:43:15;;;;;;;0.73;0.55;;;7.70;99.90;;;;;;5113232;28;20246;-81
2023/03/27 07:45:43;;;;;;;1.42;1.05;;;7.70;99.90;;;;;;5113051;28;20206;-82
2023/03/27 07:48:14;;;;;;;0.43;0.43;;;7.80;99.90;;;;;;5112182;28;20218;-81
2023/03/27 07:50:43;;;;;;;0.52;0.52;;;7.70;99.90;;;;;;5112519;28;20219;-81
2023/03/27 07:53:12;;;;;;;0.73;0.73;;;7.80;99.90;;;;;;5111472;28;20279;-82
2023/03/27 07:56:01;;;;;;;0.93;0.93;;;7.80;99.90;;;;;;5100815;28;20191;-84
2023/03/27 07:58:30;;;;;;;0.77;0.77;;;7.80;99.90;;;;;;5101492;28;20203;-82
2023/03/27 08:01:00;;;;;;;0.80;0.80;;;7.80;99.90;;;;;;5092381;28;20270;-81
2023/03/27 08:03:31;;;;;;;0.60;0.60;;;7.80;99.90;;;;;;5096081;28;20211;-81
2023/03/27 08:06:00;;;;;;;0.60;0.60;;;7.80;99.90;;;;;;5112863;28;20212;-82
2023/03/27 08:08:29;;;;;;;1.38;0.80;;;7.70;99.90;;;;;;5109275;28;20226;-82
2023/03/27 08:10:59;;;;;;;0.88;0.80;;;7.70;99.90;;;;;;5097799;28;20299;-80
2023/03/27 08:13:28;;;;;;;1.00;1.00;;;7.70;99.90;;;;;;5103105;28;20223;-80
2023/03/27 08:16:03;;;;;;;0.70;0.70;;;7.90;99.90;;;;;;5093642;28;20296;-81
2023/03/27 08:18:33;;;;;;;1.65;0.90;;;7.80;99.90;;;;;;5101057;28;20196;-81
2023/03/27 08:21:02;;;;;;;1.10;0.95;;;7.90;99.90;;;;;;5111856;28;20234;-80
2023/03/27 08:23:32;;;;;;;0.77;0.77;;;8.00;99.90;;;;;;5112638;28;20196;-81
2023/03/27 08:26:02;;;;;;;0.73;0.73;;;8.10;99.90;;;;;;5113005;28;20196;-80
2023/03/27 08:28:33;;;;;;;1.00;1.00;;;8.10;99.90;;;;;;5112146;28;20263;-80
2023/03/27 08:31:03;;;;;;;3.35;1.30;;;8.20;99.90;;;;;;5112628;28;20273;-80
2023/03/27 08:33:32;;;;;;;1.25;1.20;;;8.20;99.90;;;;;;5112468;28;20204;-80
2023/03/27 08:36:01;;;;;;;1.45;1.35;;;8.20;99.90;;;;;;5111614;28;20202;-80
2023/03/27 08:38:32;;;;;;;1.48;1.38;;;8.20;99.90;;;;;;5112711;28;20203;-80
2023/03/27 08:41:02;;;;;;;1.55;1.45;;;8.20;99.90;;;;;;5112840;28;20223;-80
2023/03/27 08:43:35;;;;;;;2.10;1.75;;;8.30;99.90;;;;;;5116759;28;20203;-80
2023/03/27 08:46:14;;;;;;;2.25;1.90;;;8.40;99.90;;;;;;5117696;28;20244;-79
2023/03/27 08:48:52;;;;;;;3.70;1.90;;;8.50;99.90;;;;;;5116657;28;20253;-79
2023/03/27 08:51:25;;;;;;;2.22;1.67;;;8.40;99.90;;;;;;5116028;28;20231;-79
2023/03/27 08:53:58;;;;;;;3.25;2.08;;;8.40;99.90;;;;;;5116463;28;20204;-79
2023/03/27 08:56:27;;;;;;;2.08;1.90;;;8.30;99.90;;;;;;5117026;28;20303;-79
2023/03/27 08:58:56;;;;;;;3.45;2.58;;;8.30;99.90;;;;;;5116051;28;20206;-79
2023/03/27 09:01:30;;;;;;;5.80;2.03;;;8.30;99.90;;;;;;5115296;28;20236;-79
2023/03/27 09:04:06;;;;;;;1.20;1.20;;;8.30;99.90;;;;;;5108949;28;20203;-79
2023/03/27 09:06:47;;;;;;;2.95;1.20;;;8.30;99.90;;;;;;5114995;28;20254;-80
2023/03/27 09:09:31;;;;;;;0.85;0.85;;;8.20;99.90;;;;;;5116320;28;20211;-80
2023/03/27 09:12:06;;;;;;;0.95;0.95;;;8.00;99.90;;;;;;5115833;28;20215;-80
2023/03/27 09:14:37;;;;;;;1.33;0.68;;;7.80;99.90;;;;;;5116425;28;20215;-80
2023/03/27 09:17:11;;;;;;;0.73;0.73;;;7.40;99.90;;;;;;5116065;28;20245;-81
2023/03/27 09:19:47;;;;;;;0.77;0.77;;;7.10;99.90;;;;;;5115974;28;20210;-80
2023/03/27 09:22:20;;;;;;;1.35;1.25;;;6.80;99.90;;;;;;5114305;28;20214;-80
2023/03/27 09:24:53;;;;;;;0.70;0.70;;;6.60;99.90;;;;;;5115119;28;20208;-81
2023/03/27 09:27:25;;;;;;;0.75;0.75;;;6.50;99.90;;;;;;5115395;28;20203;-81
2023/03/27 09:30:02;;;;;;;0.95;0.95;;;6.50;99.90;;;;;;5116284;28;20216;-81
2023/03/27 09:32:33;;;;;;;0.82;0.82;;;6.50;99.90;;;;;;5115463;28;20222;-81
2023/03/27 09:35:04;;;;;;;1.58;1.27;;;6.50;99.90;;;;;;5114781;28;20215;-80
2023/03/27 09:37:35;;;;;;;0.57;0.57;;;6.50;99.90;;;;;;5115444;28;20211;-80
2023/03/27 09:40:07;;;;;;;0.38;0.38;;;6.50;99.90;;;;;;5115429;28;20243;-80
2023/03/27 09:42:39;;;;;;;0.60;0.60;;;6.40;99.90;;;;;;5115672;28;20291;-80
2023/03/27 09:45:12;;;;;;;0.45;0.45;;;6.30;99.90;;;;;;5115646;28;20211;-80
2023/03/27 09:47:48;;;;;;;1.35;0.63;;;6.30;99.90;;;;;;5115101;28;20260;-80
2023/03/27 09:50:25;;;;;;;7.82;0.73;;;6.10;99.90;;;;;;5115201;28;20222;-80
2023/03/27 09:53:08;;;;;;;0.30;0.30;;;5.90;99.90;;;;;;5114579;28;20244;-80
2023/03/27 09:55:49;;;;;;;0.65;0.65;;;5.70;99.90;;;;;;5115117;28;20211;-80
2023/03/27 09:58:28;;;;;;;3.65;0.73;;;5.70;99.90;;;;;;5104447;28;20230;-80
2023/03/27 10:01:14;;;;;;;0.70;0.70;;;5.70;99.90;;;;;;5095980;28;20228;-80
2023/03/27 10:03:48;;;;;;;0.80;0.80;;;5.60;99.90;;;;;;5100174;28;20210;-80
2023/03/27 10:06:26;;;;;;;0.47;0.47;;;5.50;99.90;;;;;;5115144;28;20215;-81
2023/03/27 10:08:59;;;;;;;0.70;0.70;;;5.30;99.90;;;;;;5114586;28;20208;-80
2023/03/27 10:11:31;;;;;;;1.00;0.77;;;5.20;99.90;;;;;;5098210;28;20223;-81
2023/03/27 10:14:02;;;;;;;1.00;1.00;;;5.20;99.90;;;;;;5104027;28;20261;-81
2023/03/27 10:16:40;;;;;;;0.95;0.85;;;5.20;99.90;;;;;;5114859;28;20199;-81
2023/03/27 10:19:22;;;;;;;0.95;0.95;;;5.00;99.90;;;;;;5114507;28;20196;-81
2023/03/27 10:21:53;;;;;;;2.38;0.98;;;4.80;99.90;;;;;;5115827;28;20266;-79
2023/03/27 10:24:30;;;;;;;1.25;1.17;;;4.80;99.90;;;;;;5115076;28;20216;-79
2023/03/27 10:27:00;;;;;;;1.30;1.10;;;4.90;99.90;;;;;;5114183;28;20239;-79
2023/03/27 10:29:33;;;;;;;1.48;1.23;;;4.90;99.90;;;;;;5114547;28;20203;-79
2023/03/27 10:32:04;;;;;;;0.70;0.70;;;4.90;99.90;;;;;;5113970;28;20306;-79
2023/03/27 10:34:37;;;;;;;0.60;0.60;;;4.90;99.90;;;;;;5113800;28;20219;-79
2023/03/27 10:37:20;;;;;;;1.27;0.80;;;5.00;99.90;;;;;;5093962;28;20296;-79
2023/03/27 10:39:52;;;;;;;1.48;0.82;;;5.00;99.90;;;;;;5104479;28;20208;-79
2023/03/27 10:42:22;;;;;;;1.10;1.10;;;5.10;99.90;;;;;;5114326;28;20306;-80
2023/03/27 10:44:53;;;;;;;1.45;1.35;;;5.00;99.90;;;;;;5114007;28;20287;-80
2023/03/27 10:47:24;;;;;;;1.15;0.93;;;5.00;99.90;;;;;;5113126;28;20209;-79
2023/03/27 10:50:02;;;;;;;1.42;1.33;;;5.10;99.90;;;;;;5114035;28;20207;-79
2023/03/27 10:52:40;;;;;;;1.08;0.88;;;4.90;99.90;;;;;;5114405;28;20211;-79
2023/03/27 10:55:20;;;;;;;1.65;1.55;;;4.90;99.90;;;;;;5114436;28;20213;-79
2023/03/27 10:57:53;;;;;;;1.63;1.55;;;4.90;99.90;;;;;;5113543;28;20206;-80
2023/03/27 11:00:31;;;;;;;1.77;1.67;;;4.80;99.90;;;;;;5110901;28;20285;-79
2023/03/27 11:03:05;;;;;;;1.45;1.38;;;4.80;99.90;;;;;;5112103;28;20196;-80
2023/03/27 11:05:38;;;;;;;1.95;1.85;;;4.50;99.90;;;;;;5093672;28;20208;-80
2023/03/27 11:08:16;;;;;;;2.60;2.40;;;4.30;99.90;;;;;;5103868;28;20230;-80
2023/03/27 11:10:45;;;;;;;2.88;2.67;;;4.00;99.90;;;;;;5114390;28;20227;-80
2023/03/27 11:13:18;;;;;;;2.72;2.53;;;3.80;99.90;;;;;;5113966;28;20235;-80
2023/03/27 11:15:52;;;;;;;2.28;2.13;;;3.70;99.90;;;;;;5113964;28;20295;-80
2023/03/27 11:18:25;;;;;;;3.28;1.80;;;3.70;99.90;;;;;;5113124;28;20195;-81
2023/03/27 11:20:58;;;;;;;2.33;2.13;;;3.60;99.90;;;;;;5113391;28;20226;-81
2023/03/27 11:23:34;;;;;;;1.75;1.65;;;3.60;99.90;;;;;;5113876;28;20204;-80
2023/03/27 11:26:05;;;;;;;2.47;2.28;;;3.50;99.90;;;;;;5113713;28;20230;-80
2023/03/27 11:28:41;;;;;;;2.00;1.90;;;3.40;99.90;;;;;;5109813;28;20222;-81
2023/03/27 11:31:20;;;;;;;2.25;2.13;;;3.30;99.90;;;;;;5113002;28;20246;-81
2023/03/27 11:33:52;;;;;;;2.15;2.05;;;3.20;99.90;;;;;;5093434;28;20212;-80
2023/03/27 11:36:34;;;;;;;1.70;1.60;;;3.20;99.90;;;;;;5093379;28;20204;-81
2023/03/27 11:39:14;;;;;;;2.25;1.95;;;3.20;99.90;;;;;;5112311;28;20196;-81
2023/03/27 11:41:44;;;;;;;2.17;1.98;;;3.30;99.90;;;;;;5113250;28;20284;-80
2023/03/27 11:44:14;;;;;;;4.20;2.55;;;3.30;99.90;;;;;;5113310;28;20227;-81
2023/03/27 11:47:06;;;;;;;3.60;2.40;;;3.20;99.90;;;;;;5112806;28;20212;-81
2023/03/27 11:49:45;;;;;;;2.67;2.00;;;3.20;99.90;;;;;;5113275;28;20242;-81
2023/03/27 11:52:25;;;;;;;5.32;2.90;;;3.30;99.90;;;;;;5112898;28;20315;-79
2023/03/27 11:55:06;;;;;;;2.40;2.20;;;3.40;99.90;;;;;;5113003;28;20235;-79
2023/03/27 11:57:43;;;;;;;3.28;2.97;;;3.50;99.90;;;;;;5112517;28;20222;-79
2023/03/27 12:00:20;;;;;;;2.00;1.90;;;3.70;99.90;;;;;;5112679;28;20227;-79
2023/03/27 12:03:27;;;;;;;3.25;2.15;;;3.90;99.90;;;;;;5113153;28;20219;-80
2023/03/27 12:06:13;;;;;;;3.10;2.35;;;4.10;99.90;;;;;;5092741;28;20200;-78
2023/03/27 12:08:54;;;;;;;2.05;1.95;;;4.20;99.90;;;;;;5100633;28;20206;-78
2023/03/27 12:11:25;;;;;;;2.45;2.25;;;4.20;99.90;;;;;;5110326;28;20241;-78
2023/03/27 12:14:32;;;;;;;2.45;2.25;;;4.20;99.90;;;;;;5105241;28;20250;-77
2023/03/27 12:17:32;;;;;;;2.13;2.03;;;4.30;99.90;;;;;;5106568;28;20203;-79
2023/03/27 12:20:19;;;;;;;3.03;2.30;;;4.30;99.90;;;;;;5112769;28;20347;-78
2023/03/27 12:22:57;;;;;;;2.10;2.00;;;4.50;99.90;;;;;;5092210;28;20220;-79
2023/03/27 12:25:49;;;;;;;2.10;2.00;;;4.60;99.90;;;;;;5092545;28;20237;-79
2023/03/27 12:28:31;;;;;;;2.15;1.95;;;4.90;99.90;;;;;;5089778;28;20206;-79
2023/03/27 12:31:10;;;;;;;1.65;1.55;;;5.20;99.90;;;;;;5112006;28;20207;-80
2023/03/27 12:33:48;;;;;;;1.60;1.50;;;5.30;99.90;;;;;;5112654;28;20229;-80
2023/03/27 12:36:19;;;;;;;1.30;1.30;;;5.60;99.90;;;;;;5110847;28;20225;-80
2023/03/27 12:38:48;;;;;;;1.75;1.58;;;5.80;99.90;;;;;;5111992;28;20423;-80
2023/03/27 12:41:23;;;;;;;1.55;1.45;;;6.00;99.90;;;;;;5111311;28;20219;-80
2023/03/27 12:43:58;;;;;;;3.13;2.45;;;6.10;99.90;;;;;;5112156;28;20202;-80
2023/03/27 12:46:39;;;;;;;1.38;1.30;;;6.20;99.90;;;;;;5111909;28;20217;-80
2023/03/27 12:49:41;;;;;;;1.73;1.63;;;6.20;99.90;;;;;;5112068;28;20202;-82
2023/03/27 12:52:17;;;;;;;3.13;2.05;;;6.30;99.90;;;;;;5092138;28;20204;-80
2023/03/27 12:55:05;;;;;;;1.27;1.17;;;6.40;99.90;;;;;;5091446;28;20214;-80
2023/03/27 12:57:42;;;;;;;3.60;1.48;;;6.60;99.90;;;;;;5095783;28;20216;-80
2023/03/27 13:00:24;;;;;;;1.05;1.00;;;6.70;99.90;;;;;;5112568;28;20238;-80
2023/03/27 13:03:24;;;;;;;1.50;1.40;;;6.70;99.90;;;;;;5112066;28;20223;-80
2023/03/27 13:06:22;;;;;;;1.38;1.27;;;6.80;99.90;;;;;;5083004;28;20299;-80
2023/03/27 13:09:09;;;;;;;1.65;1.55;;;7.10;99.90;;;;;;5091547;28;20215;-80
2023/03/27 13:11:48;;;;;;;2.05;1.50;;;7.30;99.90;;;;;;5091883;28;20287;-80
2023/03/27 13:14:52;;;;;;;1.45;1.33;;;7.60;99.90;;;;;;5092056;28;20262;-80
2023/03/27 13:17:38;;;;;;;1.98;1.10;;;7.90;99.90;;;;;;5058457;28;20200;-80
2023/03/27 13:20:19;;;;;;;1.02;1.00;;;7.90;99.90;;;;;;5093884;28;20208;-81
2023/03/27 13:23:07;;;;;;;1.50;1.40;;;7.70;99.30;;;;;;5111134;28;20212;-81
2023/03/27 13:26:07;;;;;;;3.00;1.30;;;7.50;99.90;;;;;;5112384;28;20199;-81
2023/03/27 13:28:38;;;;;;;5.85;1.27;;;7.50;99.70;;;;;;5112214;28;20242;-81
2023/03/27 13:31:10;;;;;;;1.48;1.38;;;7.40;99.30;;;;;;5115665;28;20230;-81